Time;durP1;ratioP1;P1;durP2;ratioP2;P2;SDS_P1;SDS_P2;PMS_P1;PMS_P2;Temp;Humidity;BMP_temperature;BMP_pressure;BME280_temperature;BME280_humidity;BME280_pressure;Samples;Min_cycle;Max_cycle;Signal;HPM_P1;HPM_P2
2023/05/02 00:00:37;;;;;;;52.70;38.40;;;11.80;1.00;;;;;;4980425;28;20193;-83
2023/05/02 00:03:04;;;;;;;57.40;38.73;;;11.80;1.00;;;;;;4982499;28;20192;-84
2023/05/02 00:05:30;;;;;;;49.70;35.87;;;11.70;1.00;;;;;;4982163;28;20247;-84
2023/05/02 00:07:55;;;;;;;55.97;38.47;;;11.70;1.00;;;;;;4985588;28;20483;-83
2023/05/02 00:10:21;;;;;;;49.03;37.77;;;11.70;1.00;;;;;;4984101;28;20203;-85
2023/05/02 00:12:47;;;;;;;54.33;36.10;;;11.60;1.00;;;;;;4979845;28;20200;-84
2023/05/02 00:15:12;;;;;;;54.80;39.03;;;11.60;1.00;;;;;;4982780;28;20474;-83
2023/05/02 00:17:42;;;;;;;57.27;39.97;;;11.60;1.00;;;;;;4985814;28;20192;-83
2023/05/02 00:20:09;;;;;;;55.43;37.43;;;11.50;1.00;;;;;;4982713;28;20173;-83
2023/05/02 00:22:35;;;;;;;54.63;37.70;;;11.50;1.00;;;;;;4978119;28;20439;-82
2023/05/02 00:25:06;;;;;;;56.00;38.13;;;11.50;1.00;;;;;;4985021;28;20490;-83
2023/05/02 00:27:32;;;;;;;53.17;37.10;;;11.40;25.70;;;;;;4978036;28;20246;-83
2023/05/02 00:29:59;;;;;;;55.47;36.20;;;11.40;27.40;;;;;;4982470;28;20538;-84
2023/05/02 00:32:24;;;;;;;58.43;37.27;;;11.40;41.70;;;;;;4979055;28;20222;-84
2023/05/02 00:34:50;;;;;;;56.63;37.33;;;11.40;65.00;;;;;;4986580;28;20499;-84
2023/05/02 00:37:15;;;;;;;53.40;37.67;;;11.40;91.50;;;;;;4981254;28;20199;-84
2023/05/02 00:39:41;;;;;;;52.93;37.43;;;11.40;99.90;;;;;;4983275;28;20189;-84
2023/05/02 00:42:06;;;;;;;57.23;37.40;;;11.40;99.90;;;;;;4983608;28;20247;-83
2023/05/02 00:44:32;;;;;;;53.70;37.07;;;11.40;99.90;;;;;;4987495;28;20686;-83
2023/05/02 00:47:00;;;;;;;55.53;37.53;;;11.50;99.90;;;;;;4987040;28;20196;-84
2023/05/02 00:49:26;;;;;;;51.40;37.47;;;11.50;99.90;;;;;;4987864;28;20184;-82
2023/05/02 00:51:53;;;;;;;54.07;38.07;;;11.50;99.90;;;;;;4985805;28;20503;-83
2023/05/02 00:54:19;;;;;;;54.43;37.87;;;11.60;99.90;;;;;;4978141;28;20216;-83
2023/05/02 00:56:45;;;;;;;55.43;36.80;;;11.60;99.90;;;;;;4975914;28;20871;-83
2023/05/02 00:59:12;;;;;;;57.20;38.30;;;11.60;99.90;;;;;;4979167;28;20200;-83
2023/05/02 01:02:14;;;;;;;55.13;37.70;;;11.60;99.90;;;;;;4978538;28;20474;-84
2023/05/02 01:05:06;;;;;;;58.93;38.80;;;11.70;99.90;;;;;;4987350;28;20502;-83
2023/05/02 01:07:51;;;;;;;54.17;33.53;;;11.70;99.90;;;;;;4987004;28;20548;-83
2023/05/02 01:10:41;;;;;;;53.13;34.57;;;11.70;99.90;;;;;;4986827;28;20530;-83
2023/05/02 01:13:12;;;;;;;61.93;37.57;;;11.70;99.90;;;;;;4985619;28;20450;-85
2023/05/02 01:15:40;;;;;;;49.83;34.10;;;11.70;99.90;;;;;;4981936;28;20550;-83
2023/05/02 01:18:09;;;;;;;56.40;37.23;;;11.70;99.90;;;;;;4981788;28;20463;-84
2023/05/02 01:20:40;;;;;;;52.90;34.47;;;11.70;99.90;;;;;;5002543;28;20428;-84
2023/05/02 01:23:12;;;;;;;55.83;36.03;;;11.70;99.90;;;;;;4982846;28;20445;-86
2023/05/02 01:26:06;;;;;;;55.17;35.47;;;11.70;99.90;;;;;;4993477;28;20488;-85
2023/05/02 01:29:01;;;;;;;55.00;35.40;;;11.70;99.90;;;;;;4986862;28;20450;-83
2023/05/02 01:31:33;;;;;;;55.07;35.80;;;11.70;99.90;;;;;;4980124;28;20480;-83
2023/05/02 01:33:59;;;;;;;51.20;34.93;;;11.70;99.90;;;;;;4989638;28;20439;-84
2023/05/02 01:36:29;;;;;;;52.27;35.80;;;11.70;99.90;;;;;;4973768;28;20464;-85
2023/05/02 01:38:56;;;;;;;58.67;36.47;;;11.70;99.90;;;;;;4987543;28;20435;-84
2023/05/02 01:41:26;;;;;;;52.60;36.13;;;11.70;99.90;;;;;;4990970;28;20444;-83
2023/05/02 01:43:57;;;;;;;59.87;35.40;;;11.70;99.90;;;;;;4990479;28;20424;-85
2023/05/02 01:46:25;;;;;;;53.33;34.40;;;11.70;99.90;;;;;;4994530;28;20443;-84
2023/05/02 01:48:52;;;;;;;53.50;34.43;;;11.70;99.90;;;;;;4990472;28;21098;-85
2023/05/02 01:51:20;;;;;;;55.17;33.70;;;11.70;99.90;;;;;;4990975;28;20475;-84
2023/05/02 01:53:49;;;;;;;53.93;34.73;;;11.80;99.90;;;;;;4989702;28;20440;-84
2023/05/02 01:56:17;;;;;;;47.37;31.63;;;11.80;99.90;;;;;;4988801;28;20475;-84
2023/05/02 01:58:44;;;;;;;58.40;33.40;;;11.80;99.90;;;;;;4984511;28;20936;-83
2023/05/02 02:01:10;;;;;;;54.77;33.23;;;11.90;99.90;;;;;;4991662;28;20446;-85
2023/05/02 02:03:35;;;;;;;51.70;31.80;;;11.90;99.90;;;;;;4988372;28;20447;-83
2023/05/02 02:06:02;;;;;;;50.10;32.00;;;11.90;99.90;;;;;;4981166;28;20491;-84
2023/05/02 02:08:28;;;;;;;54.17;34.33;;;12.00;99.90;;;;;;4986618;28;20236;-85
2023/05/02 02:10:59;;;;;;;49.67;31.67;;;12.00;99.90;;;;;;4988573;28;20499;-85
2023/05/02 02:13:31;;;;;;;49.33;32.43;;;12.10;99.90;;;;;;4987967;28;20646;-83
2023/05/02 02:16:01;;;;;;;51.30;32.87;;;12.10;99.90;;;;;;4987069;28;20478;-84
2023/05/02 02:18:29;;;;;;;52.43;32.80;;;12.10;99.90;;;;;;4982642;28;20443;-84
2023/05/02 02:20:58;;;;;;;50.97;31.73;;;12.10;92.50;;;;;;4985410;28;20432;-84
2023/05/02 02:23:26;;;;;;;49.50;32.80;;;12.10;62.30;;;;;;4984149;28;20518;-84
2023/05/02 02:25:53;;;;;;;52.17;33.57;;;12.10;71.40;;;;;;4988188;28;20832;-85
2023/05/02 02:28:18;;;;;;;55.97;35.60;;;12.20;79.30;;;;;;4983613;28;20436;-85
2023/05/02 02:30:44;;;;;;;60.43;35.20;;;12.10;40.30;;;;;;4986877;28;20490;-85
2023/05/02 02:33:10;;;;;;;55.97;34.07;;;12.10;41.90;;;;;;4986725;28;20210;-85
2023/05/02 02:35:47;;;;;;;56.30;35.90;;;12.10;57.60;;;;;;4987487;28;20227;-86
2023/05/02 02:38:33;;;;;;;60.33;38.53;;;12.10;98.80;;;;;;4987124;28;20188;-86
2023/05/02 02:41:10;;;;;;;62.50;38.67;;;12.10;69.30;;;;;;4986542;28;20439;-85
2023/05/02 02:43:47;;;;;;;53.00;35.90;;;12.10;83.40;;;;;;4980317;28;20976;-86
2023/05/02 02:46:24;;;;;;;60.80;38.10;;;12.10;99.90;;;;;;4981110;28;20487;-85
2023/05/02 02:49:15;;;;;;;62.13;37.77;;;12.10;99.90;;;;;;4986118;28;20439;-86
2023/05/02 02:51:52;;;;;;;65.63;40.80;;;12.00;99.90;;;;;;4982936;28;20472;-84
2023/05/02 02:54:45;;;;;;;62.90;37.27;;;12.00;99.90;;;;;;4983462;28;20506;-84
2023/05/02 02:57:46;;;;;;;63.00;37.43;;;12.00;99.90;;;;;;4987697;28;20444;-85
2023/05/02 03:00:21;;;;;;;58.03;36.47;;;12.10;99.90;;;;;;4980069;28;20422;-85
2023/05/02 03:02:47;;;;;;;60.07;37.30;;;12.10;99.90;;;;;;4987877;28;20511;-85
2023/05/02 03:05:13;;;;;;;57.77;36.53;;;12.10;99.90;;;;;;4982264;28;20475;-85
2023/05/02 03:07:39;;;;;;;66.20;37.10;;;12.10;99.90;;;;;;4987411;28;20498;-85
2023/05/02 03:10:06;;;;;;;61.00;37.63;;;12.10;99.90;;;;;;4987158;28;20437;-85
2023/05/02 03:12:32;;;;;;;60.27;36.83;;;12.10;99.90;;;;;;4981054;28;20555;-86
2023/05/02 03:15:13;;;;;;;57.10;33.43;;;12.10;99.90;;;;;;4977932;28;20527;-86
2023/05/02 03:17:38;;;;;;;50.33;31.57;;;12.10;99.90;;;;;;4982294;28;20216;-85
2023/05/02 03:20:04;;;;;;;58.80;35.37;;;12.10;99.90;;;;;;4981967;28;20421;-86
2023/05/02 03:22:30;;;;;;;52.97;33.70;;;12.10;99.90;;;;;;4983631;28;20574;-86
2023/05/02 03:24:55;;;;;;;59.23;33.63;;;12.10;99.90;;;;;;4986300;28;20451;-84
2023/05/02 03:27:21;;;;;;;51.57;32.33;;;12.10;99.90;;;;;;4974615;28;20250;-85
2023/05/02 03:29:47;;;;;;;52.63;32.00;;;12.10;99.90;;;;;;4980277;28;20219;-85
2023/05/02 03:32:13;;;;;;;52.77;31.07;;;12.10;99.90;;;;;;4979963;28;20223;-85
2023/05/02 03:34:38;;;;;;;50.40;33.07;;;12.10;99.90;;;;;;4983369;28;20463;-84
2023/05/02 03:37:04;;;;;;;46.90;30.60;;;12.00;99.90;;;;;;4981964;28;20191;-84
2023/05/02 03:39:29;;;;;;;54.83;33.27;;;12.00;99.90;;;;;;4984794;28;20195;-85
2023/05/02 03:41:55;;;;;;;52.93;32.93;;;12.10;99.90;;;;;;4986361;28;20210;-86
2023/05/02 03:44:20;;;;;;;51.63;31.00;;;12.10;99.90;;;;;;4983691;28;20205;-84
2023/05/02 03:46:47;;;;;;;53.73;31.60;;;12.10;99.90;;;;;;4986174;28;20189;-86
2023/05/02 03:49:12;;;;;;;45.20;28.07;;;12.10;99.90;;;;;;4987844;28;20654;-85
2023/05/02 03:51:38;;;;;;;45.23;26.67;;;12.10;99.90;;;;;;4987010;28;20466;-85
2023/05/02 03:54:03;;;;;;;37.63;23.37;;;12.10;99.90;;;;;;4989973;28;20181;-84
2023/05/02 03:56:29;;;;;;;34.77;22.50;;;12.10;88.10;;;;;;4985003;28;20189;-85
2023/05/02 03:58:54;;;;;;;26.60;19.23;;;12.10;20.80;;;;;;4991090;28;20200;-86
2023/05/02 04:01:20;;;;;;;26.73;17.67;;;12.10;16.70;;;;;;4991678;28;20196;-86
2023/05/02 04:03:45;;;;;;;30.20;17.80;;;12.10;1.00;;;;;;4980868;28;20279;-85
2023/05/02 04:06:11;;;;;;;29.60;18.67;;;12.10;1.00;;;;;;4984411;28;20831;-84
2023/05/02 04:08:37;;;;;;;27.77;17.57;;;12.10;1.00;;;;;;4981753;28;20184;-83
2023/05/02 04:11:03;;;;;;;32.87;17.70;;;12.10;1.00;;;;;;4978659;28;20534;-86
2023/05/02 04:13:28;;;;;;;28.30;16.57;;;12.10;1.00;;;;;;4990489;28;20184;-86
2023/05/02 04:15:54;;;;;;;21.50;14.50;;;12.10;1.00;;;;;;4979394;28;20196;-84
2023/05/02 04:18:20;;;;;;;25.57;16.40;;;12.10;1.00;;;;;;4977848;28;20180;-85
2023/05/02 04:20:45;;;;;;;33.17;15.97;;;12.10;1.00;;;;;;4986486;28;20283;-86
2023/05/02 04:23:11;;;;;;;24.80;15.87;;;12.10;1.00;;;;;;4986498;28;20189;-85
2023/05/02 04:25:36;;;;;;;29.10;16.00;;;12.20;1.00;;;;;;4989711;28;20226;-84
2023/05/02 04:28:02;;;;;;;27.50;16.10;;;12.20;1.00;;;;;;4989220;28;20216;-85
2023/05/02 04:30:28;;;;;;;24.00;15.17;;;12.20;1.00;;;;;;4982090;28;20180;-86
2023/05/02 04:32:53;;;;;;;31.20;15.43;;;12.10;99.90;;;;;;4987911;28;20215;-85
2023/05/02 04:35:19;;;;;;;26.90;15.77;;;12.10;99.90;;;;;;4984559;28;20200;-85
2023/05/02 04:37:44;;;;;;;26.17;16.13;;;12.10;1.00;;;;;;5003868;28;20183;-84
2023/05/02 04:40:11;;;;;;;27.77;15.40;;;12.10;1.00;;;;;;4987012;28;20189;-84
2023/05/02 04:42:36;;;;;;;26.50;16.57;;;12.10;1.00;;;;;;4977051;28;20246;-84
2023/05/02 04:45:02;;;;;;;25.70;15.87;;;12.00;1.00;;;;;;4985103;28;20885;-82
2023/05/02 04:47:28;;;;;;;30.03;15.87;;;12.10;1.00;;;;;;4985270;28;20212;-84
2023/05/02 04:49:53;;;;;;;25.93;16.43;;;12.10;1.00;;;;;;4978579;28;20252;-84
2023/05/02 04:52:19;;;;;;;23.40;15.30;;;12.10;1.00;;;;;;4977713;28;20208;-84
2023/05/02 04:54:44;;;;;;;25.13;15.47;;;12.10;1.00;;;;;;4989210;28;20201;-84
2023/05/02 04:57:10;;;;;;;21.50;14.53;;;12.10;1.00;;;;;;4987794;28;20235;-84
2023/05/02 04:59:37;;;;;;;25.70;16.10;;;12.00;1.00;;;;;;4980714;28;20651;-84
2023/05/02 05:02:02;;;;;;;23.73;14.83;;;12.00;1.00;;;;;;4988489;28;20185;-85
2023/05/02 05:04:28;;;;;;;25.67;15.20;;;12.00;1.00;;;;;;4990305;28;20576;-84
2023/05/02 05:06:53;;;;;;;27.70;17.30;;;11.90;1.00;;;;;;4989639;28;20207;-85
2023/05/02 05:09:19;;;;;;;24.10;15.67;;;11.90;1.00;;;;;;4977304;28;20631;-85
2023/05/02 05:11:45;;;;;;;26.63;16.43;;;11.90;20.10;;;;;;4985586;28;20192;-84
2023/05/02 05:14:11;;;;;;;32.80;17.87;;;11.90;35.20;;;;;;4981847;28;20211;-86
2023/05/02 05:16:36;;;;;;;28.53;17.07;;;11.90;94.50;;;;;;4986929;28;20432;-85
2023/05/02 05:19:03;;;;;;;33.10;16.47;;;11.90;99.90;;;;;;4987090;28;20459;-84
2023/05/02 05:21:28;;;;;;;29.07;15.93;;;11.90;99.90;;;;;;4987218;28;20188;-85
2023/05/02 05:23:54;;;;;;;29.00;15.37;;;11.90;99.90;;;;;;4981994;28;20999;-85
2023/05/02 05:26:20;;;;;;;24.53;14.60;;;12.00;99.90;;;;;;4985917;28;20286;-84
2023/05/02 05:28:45;;;;;;;30.53;15.57;;;12.00;99.90;;;;;;4987079;28;20192;-85
2023/05/02 05:31:12;;;;;;;26.70;15.20;;;12.00;99.90;;;;;;4984620;28;20564;-83
2023/05/02 05:33:38;;;;;;;25.83;16.10;;;12.00;99.90;;;;;;4979625;28;20240;-84
2023/05/02 05:36:07;;;;;;;26.37;16.87;;;12.10;91.40;;;;;;4988282;28;20439;-85
2023/05/02 05:38:33;;;;;;;28.63;15.33;;;12.00;99.90;;;;;;4981316;28;20464;-84
2023/05/02 05:40:58;;;;;;;24.23;14.77;;;12.00;99.90;;;;;;4987963;28;20447;-84
2023/05/02 05:43:25;;;;;;;25.27;16.50;;;12.10;99.90;;;;;;4983696;28;20659;-85
2023/05/02 05:45:54;;;;;;;28.13;15.90;;;12.10;99.90;;;;;;4984119;28;20207;-86
2023/05/02 05:48:20;;;;;;;22.93;15.63;;;12.20;99.90;;;;;;4982659;28;20447;-85
2023/05/02 05:50:46;;;;;;;22.07;14.63;;;12.20;99.90;;;;;;4978021;28;20475;-85
2023/05/02 05:53:12;;;;;;;24.00;15.30;;;12.30;99.90;;;;;;4985904;28;20488;-84
2023/05/02 05:55:38;;;;;;;25.77;15.10;;;12.30;96.30;;;;;;4984410;28;20233;-84
2023/05/02 05:58:04;;;;;;;26.70;13.73;;;12.30;37.50;;;;;;4983965;28;20480;-85
2023/05/02 06:00:30;;;;;;;25.37;14.53;;;12.30;42.90;;;;;;4979852;28;20181;-86
2023/05/02 06:02:55;;;;;;;21.33;13.73;;;12.30;25.90;;;;;;4988210;28;20463;-83
2023/05/02 06:05:21;;;;;;;24.73;14.93;;;12.30;1.00;;;;;;4983625;28;20722;-83
2023/05/02 06:07:46;;;;;;;23.80;14.40;;;12.40;23.50;;;;;;4988533;28;20204;-84
2023/05/02 06:10:12;;;;;;;30.43;15.03;;;12.70;1.00;;;;;;4989537;28;20161;-84
2023/05/02 06:12:37;;;;;;;21.27;14.07;;;12.90;1.00;;;;;;4984217;28;20666;-83
2023/05/02 06:15:03;;;;;;;22.60;15.23;;;13.00;99.90;;;;;;4992746;28;20215;-83
2023/05/02 06:17:29;;;;;;;23.60;15.10;;;13.00;99.90;;;;;;4980521;28;20184;-85
2023/05/02 06:19:55;;;;;;;21.37;13.97;;;13.00;99.90;;;;;;4987873;28;20432;-85
2023/05/02 06:22:20;;;;;;;26.13;14.40;;;13.00;99.90;;;;;;4991559;28;20893;-83
2023/05/02 06:24:46;;;;;;;23.53;15.00;;;12.80;26.10;;;;;;4991804;28;20414;-84
2023/05/02 06:27:11;;;;;;;23.93;14.63;;;12.70;99.90;;;;;;4991258;28;20192;-84
2023/05/02 06:29:37;;;;;;;23.90;15.00;;;12.70;99.90;;;;;;4983143;28;20215;-85
2023/05/02 06:32:03;;;;;;;15.47;12.17;;;12.60;1.00;;;;;;4990456;28;20685;-84
2023/05/02 06:34:32;;;;;;;12.50;9.97;;;12.50;1.00;;;;;;4990765;28;20204;-81
2023/05/02 06:36:57;;;;;;;12.43;8.37;;;12.40;1.00;;;;;;4984004;28;20447;-81
2023/05/02 06:39:23;;;;;;;14.70;10.50;;;12.40;99.90;;;;;;4974786;28;20429;-82
2023/05/02 06:41:49;;;;;;;13.50;11.37;;;12.40;99.90;;;;;;4982506;28;20203;-83
2023/05/02 06:44:15;;;;;;;15.33;10.93;;;12.30;99.90;;;;;;4978762;28;20209;-82
2023/05/02 06:46:40;;;;;;;18.53;11.67;;;12.40;1.00;;;;;;4977907;28;20211;-82
2023/05/02 06:49:06;;;;;;;14.73;8.90;;;12.50;1.00;;;;;;4985360;28;20472;-82
2023/05/02 06:51:32;;;;;;;14.00;8.97;;;12.60;1.00;;;;;;4982077;28;20212;-81
2023/05/02 06:53:57;;;;;;;7.70;5.40;;;12.60;99.90;;;;;;4985291;28;20185;-83
2023/05/02 06:56:24;;;;;;;9.57;6.57;;;12.70;1.00;;;;;;5001372;28;20208;-82
2023/05/02 06:58:50;;;;;;;11.33;6.23;;;12.80;99.90;;;;;;4981825;28;20188;-84
2023/05/02 07:01:39;;;;;;;10.53;5.27;;;12.90;99.90;;;;;;4985210;28;20435;-82
2023/05/02 07:04:05;;;;;;;13.73;7.50;;;13.10;99.90;;;;;;4981092;28;20689;-82
2023/05/02 07:06:31;;;;;;;13.37;8.37;;;13.20;99.90;;;;;;4981128;28;20480;-82
2023/05/02 07:08:57;;;;;;;11.03;6.40;;;13.40;1.00;;;;;;4992475;28;20214;-83
2023/05/02 07:11:22;;;;;;;7.50;5.47;;;13.50;99.90;;;;;;4984425;28;20463;-83
2023/05/02 07:13:48;;;;;;;7.33;5.80;;;13.60;99.90;;;;;;4980973;28;20193;-83
2023/05/02 07:16:14;;;;;;;9.90;6.60;;;13.80;99.90;;;;;;4985801;28;20465;-82
2023/05/02 07:18:41;;;;;;;9.50;5.13;;;14.00;1.00;;;;;;4999504;28;21005;-82
2023/05/02 07:21:07;;;;;;;6.50;3.73;;;14.10;1.00;;;;;;4977913;28;20191;-82
2023/05/02 07:23:32;;;;;;;5.63;3.50;;;14.30;99.90;;;;;;4988189;28;20859;-83
2023/05/02 07:25:58;;;;;;;3.77;2.60;;;14.60;99.90;;;;;;4981284;28;20491;-83
2023/05/02 07:28:23;;;;;;;7.30;3.40;;;15.80;99.90;;;;;;4985581;28;20212;-82
2023/05/02 07:30:49;;;;;;;9.30;3.77;;;17.20;1.00;;;;;;4986865;28;20221;-84
2023/05/02 07:33:15;;;;;;;7.63;3.03;;;21.80;99.90;;;;;;4988440;28;20179;-84
2023/05/02 07:35:41;;;;;;;7.70;3.97;;;23.40;99.90;;;;;;4976490;28;20210;-84
2023/05/02 07:38:06;;;;;;;5.10;2.13;;;23.30;99.90;;;;;;4988699;28;20185;-83
2023/05/02 07:40:32;;;;;;;3.70;1.67;;;22.40;99.90;;;;;;4982925;28;20461;-83
2023/05/02 07:43:00;;;;;;;4.67;1.83;;;21.50;99.90;;;;;;4980382;28;20185;-84
2023/05/02 07:45:25;;;;;;;3.10;1.57;;;20.80;99.90;;;;;;4983824;28;20225;-84
2023/05/02 07:47:51;;;;;;;7.47;2.00;;;20.70;99.90;;;;;;4985566;28;20480;-84
2023/05/02 07:50:16;;;;;;;4.80;1.80;;;20.70;99.90;;;;;;4986849;28;20664;-82
2023/05/02 07:52:42;;;;;;;4.47;1.90;;;20.50;99.90;;;;;;4974057;28;20217;-82
2023/05/02 07:55:08;;;;;;;4.37;2.17;;;20.20;99.90;;;;;;4986524;28;20220;-84
2023/05/02 07:57:33;;;;;;;4.83;2.37;;;19.90;99.90;;;;;;4981199;28;20192;-82
2023/05/02 07:59:59;;;;;;;5.00;3.40;;;19.60;99.90;;;;;;4970819;28;20504;-83
2023/05/02 08:02:24;;;;;;;7.80;3.90;;;19.20;99.90;;;;;;4978042;28;20224;-81
2023/05/02 08:04:50;;;;;;;5.20;2.43;;;18.90;99.90;;;;;;4975930;28;20321;-81
2023/05/02 08:07:16;;;;;;;5.20;2.60;;;18.80;99.90;;;;;;4976391;28;20272;-83
2023/05/02 08:09:41;;;;;;;6.80;2.80;;;18.80;99.90;;;;;;4975492;28;20188;-82
2023/05/02 08:12:07;;;;;;;3.50;2.30;;;18.80;99.90;;;;;;4971069;28;20205;-82
2023/05/02 08:14:32;;;;;;;3.20;2.37;;;18.60;99.90;;;;;;4974547;28;20202;-83
2023/05/02 08:16:59;;;;;;;8.07;2.57;;;18.10;99.90;;;;;;4973843;28;20243;-83
2023/05/02 08:19:25;;;;;;;8.60;2.80;;;17.60;99.90;;;;;;4977188;28;20188;-83
2023/05/02 08:21:53;;;;;;;5.33;2.90;;;17.20;99.90;;;;;;4982033;28;20448;-82
2023/05/02 08:24:18;;;;;;;4.17;2.20;;;17.00;99.90;;;;;;4981869;28;20450;-83
2023/05/02 08:26:44;;;;;;;4.50;2.80;;;17.10;99.90;;;;;;4987672;28;20523;-84
2023/05/02 08:29:10;;;;;;;7.50;4.80;;;17.10;99.90;;;;;;4985347;28;20226;-82
2023/05/02 08:31:36;;;;;;;7.53;4.03;;;17.00;99.90;;;;;;4988439;28;20232;-82
2023/05/02 08:34:02;;;;;;;10.17;3.70;;;17.00;99.90;;;;;;4983491;28;20461;-81
2023/05/02 08:36:27;;;;;;;9.60;3.30;;;17.00;99.90;;;;;;4977487;28;20450;-83
2023/05/02 08:38:53;;;;;;;10.63;3.77;;;17.00;99.90;;;;;;4976008;28;20194;-82
2023/05/02 08:41:19;;;;;;;5.63;2.80;;;16.90;99.90;;;;;;4995111;28;20279;-83
2023/05/02 08:43:45;;;;;;;6.03;3.40;;;17.00;99.90;;;;;;4990687;28;20258;-81
2023/05/02 08:46:13;;;;;;;8.40;3.50;;;17.00;99.90;;;;;;4980947;28;20474;-83
2023/05/02 08:48:41;;;;;;;7.37;3.00;;;17.20;99.90;;;;;;4973195;28;20470;-81
2023/05/02 08:51:12;;;;;;;6.90;2.37;;;17.50;99.90;;;;;;4976370;28;20475;-82
2023/05/02 08:53:38;;;;;;;8.30;2.47;;;18.00;99.90;;;;;;4972960;28;20437;-81
2023/05/02 08:56:06;;;;;;;3.17;1.90;;;18.50;99.90;;;;;;4969279;28;20534;-82
2023/05/02 08:58:31;;;;;;;5.40;2.37;;;18.70;99.90;;;;;;4977230;28;20524;-83
2023/05/02 09:01:01;;;;;;;3.07;2.20;;;18.70;99.90;;;;;;4979886;28;20456;-81
2023/05/02 09:03:33;;;;;;;3.83;2.40;;;18.80;99.90;;;;;;4977568;28;20221;-82
2023/05/02 09:06:07;;;;;;;7.73;3.27;;;18.70;99.90;;;;;;4980224;28;20510;-83
2023/05/02 09:08:35;;;;;;;5.10;2.60;;;18.50;99.90;;;;;;4980253;28;20450;-81
2023/05/02 09:11:04;;;;;;;4.50;2.43;;;18.30;99.90;;;;;;4970431;28;20511;-83
2023/05/02 09:13:37;;;;;;;7.63;2.50;;;17.90;99.90;;;;;;4980353;28;20446;-82
2023/05/02 09:16:06;;;;;;;12.60;2.57;;;17.50;99.90;;;;;;4968682;28;20474;-82
2023/05/02 09:18:36;;;;;;;9.10;3.07;;;17.10;99.90;;;;;;4972860;28;20447;-83
2023/05/02 09:21:07;;;;;;;5.83;2.30;;;16.90;99.90;;;;;;4976391;28;20442;-82
2023/05/02 09:23:38;;;;;;;7.17;2.27;;;16.70;99.90;;;;;;4979937;28;20474;-81
2023/05/02 09:26:13;;;;;;;5.70;2.70;;;16.50;99.90;;;;;;4977875;28;20471;-83
2023/05/02 09:28:41;;;;;;;9.37;2.70;;;16.30;99.90;;;;;;4972684;28;20446;-82
2023/05/02 09:31:09;;;;;;;7.23;2.83;;;16.30;99.90;;;;;;4975084;28;20474;-84
2023/05/02 09:33:35;;;;;;;5.00;2.70;;;16.30;99.90;;;;;;4990361;28;20424;-81
2023/05/02 09:36:01;;;;;;;5.93;3.17;;;16.20;99.90;;;;;;4974520;28;20889;-82
2023/05/02 09:38:26;;;;;;;7.33;2.90;;;16.30;99.90;;;;;;4981779;28;20420;-82
2023/05/02 09:40:54;;;;;;;9.90;2.90;;;16.40;99.90;;;;;;4980755;28;20444;-83
2023/05/02 09:43:20;;;;;;;9.87;3.40;;;16.40;99.90;;;;;;4980697;28;20199;-80
2023/05/02 09:45:56;;;;;;;6.37;3.00;;;16.30;99.90;;;;;;4981737;28;21021;-83
2023/05/02 09:48:21;;;;;;;8.13;3.40;;;16.30;99.90;;;;;;4981068;28;20222;-82
2023/05/02 09:50:47;;;;;;;11.73;3.27;;;16.30;99.90;;;;;;4981323;28;20531;-82
2023/05/02 09:53:12;;;;;;;8.83;3.30;;;16.30;99.90;;;;;;4964191;28;20193;-84
2023/05/02 09:55:38;;;;;;;8.10;3.77;;;16.40;99.90;;;;;;4977557;28;21042;-83
2023/05/02 09:58:05;;;;;;;10.67;3.60;;;16.40;99.90;;;;;;4972408;28;20197;-83
2023/05/02 10:00:44;;;;;;;5.07;3.30;;;16.50;99.90;;;;;;4974450;28;20270;-82
2023/05/02 10:03:14;;;;;;;7.63;3.50;;;16.60;99.90;;;;;;4980856;28;20470;-82
2023/05/02 10:05:40;;;;;;;8.83;3.23;;;16.70;99.90;;;;;;4979760;28;20457;-81
2023/05/02 10:08:07;;;;;;;8.80;3.70;;;16.90;99.90;;;;;;4986276;28;20805;-81
2023/05/02 10:10:35;;;;;;;11.73;2.87;;;17.10;99.90;;;;;;4977857;28;20435;-81
2023/05/02 10:13:03;;;;;;;9.20;3.47;;;17.60;99.90;;;;;;4975020;28;20444;-82
2023/05/02 10:15:30;;;;;;;11.97;4.00;;;18.50;99.90;;;;;;4960120;28;20835;-82
2023/05/02 10:17:59;;;;;;;6.07;3.70;;;19.10;99.90;;;;;;4972935;28;20944;-82
2023/05/02 10:20:34;;;;;;;13.13;4.23;;;19.20;99.90;;;;;;4969921;28;20846;-81
2023/05/02 10:23:03;;;;;;;9.60;3.77;;;19.10;99.90;;;;;;4972326;28;20437;-81
2023/05/02 10:25:29;;;;;;;8.07;2.70;;;19.10;99.90;;;;;;4974128;28;20461;-81
2023/05/02 10:27:58;;;;;;;8.10;3.97;;;18.90;99.90;;;;;;4965035;28;20448;-81
2023/05/02 10:30:24;;;;;;;10.37;3.77;;;18.70;99.90;;;;;;4968578;28;20504;-81
2023/05/02 10:32:52;;;;;;;13.07;3.77;;;18.40;99.90;;;;;;4973518;28;20440;-81
2023/05/02 10:35:18;;;;;;;6.67;3.23;;;18.20;99.90;;;;;;4969613;28;20462;-80
2023/05/02 10:37:45;;;;;;;9.80;3.67;;;18.00;99.90;;;;;;4972510;28;20440;-81
2023/05/02 10:40:12;;;;;;;9.33;3.33;;;17.90;99.90;;;;;;4970749;28;20434;-81
2023/05/02 10:42:44;;;;;;;6.37;3.60;;;18.00;99.90;;;;;;4966254;28;20822;-81
2023/05/02 10:45:35;;;;;;;6.40;3.37;;;18.30;99.90;;;;;;4965970;28;20458;-82
2023/05/02 10:48:14;;;;;;;7.67;3.63;;;18.80;99.90;;;;;;4969341;28;20814;-81
2023/05/02 10:50:46;;;;;;;7.70;3.20;;;19.70;99.90;;;;;;4966504;28;20446;-81
2023/05/02 10:53:26;;;;;;;9.83;4.03;;;20.50;99.90;;;;;;4971064;28;20441;-82
2023/05/02 10:56:16;;;;;;;5.40;3.20;;;21.00;99.90;;;;;;4973942;28;20465;-81
2023/05/02 10:58:45;;;;;;;9.77;3.37;;;21.80;99.90;;;;;;4970365;28;20428;-81
2023/05/02 11:01:29;;;;;;;10.57;3.33;;;23.30;99.90;;;;;;4972959;28;20442;-82
2023/05/02 11:04:10;;;;;;;6.33;3.00;;;24.10;99.90;;;;;;4965410;28;20513;-82
2023/05/02 11:06:55;;;;;;;6.07;3.13;;;25.20;99.90;;;;;;4968806;28;20440;-82
2023/05/02 11:09:23;;;;;;;6.77;3.67;;;27.10;99.90;;;;;;4972605;28;20435;-82
2023/05/02 11:11:51;;;;;;;6.73;3.60;;;27.70;99.90;;;;;;4968378;28;20533;-82
2023/05/02 11:14:32;;;;;;;7.17;3.80;;;28.00;99.90;;;;;;4964797;28;20436;-81
2023/05/02 11:16:57;;;;;;;4.77;2.90;;;28.60;99.90;;;;;;4968645;28;20437;-82
2023/05/02 11:19:24;;;;;;;6.77;3.23;;;29.70;99.90;;;;;;4967153;28;20429;-82
2023/05/02 11:21:51;;;;;;;5.80;3.00;;;30.30;99.90;;;;;;4964053;28;20223;-82
2023/05/02 11:24:37;;;;;;;5.67;3.00;;;30.80;99.90;;;;;;4970158;28;20478;-82
2023/05/02 11:27:28;;;;;;;6.20;3.20;;;31.10;99.90;;;;;;4971613;28;20501;-83
2023/05/02 11:29:57;;;;;;;5.40;3.23;;;30.70;99.90;;;;;;4969749;28;20469;-82
2023/05/02 11:32:24;;;;;;;9.53;3.80;;;29.60;99.90;;;;;;4969664;28;20534;-82
2023/05/02 11:34:51;;;;;;;7.00;3.63;;;28.50;99.90;;;;;;4970732;28;20464;-82
2023/05/02 11:37:18;;;;;;;7.23;3.37;;;27.70;99.90;;;;;;4977380;28;20432;-82
2023/05/02 11:39:45;;;;;;;7.67;3.50;;;27.10;99.90;;;;;;4978264;28;20454;-82
2023/05/02 11:42:30;;;;;;;6.70;3.67;;;26.50;99.90;;;;;;4976438;28;20440;-83
2023/05/02 11:44:59;;;;;;;8.13;3.83;;;26.10;99.90;;;;;;4968564;28;20459;-82
2023/05/02 11:47:28;;;;;;;7.57;3.63;;;25.80;99.90;;;;;;4967544;28;20530;-81
2023/05/02 11:49:55;;;;;;;7.90;3.23;;;25.90;99.90;;;;;;4975687;28;20447;-83
2023/05/02 11:52:22;;;;;;;10.87;3.67;;;26.30;99.90;;;;;;4971143;28;20471;-81
2023/05/02 11:54:48;;;;;;;7.13;3.70;;;25.80;99.90;;;;;;4964501;28;20491;-81
2023/05/02 11:57:14;;;;;;;11.13;2.97;;;25.70;99.90;;;;;;4963417;28;20475;-81
2023/05/02 11:59:52;;;;;;;7.53;3.50;;;26.00;99.90;;;;;;4967806;28;20876;-80
2023/05/02 12:02:18;;;;;;;5.27;3.30;;;26.00;99.90;;;;;;4964666;28;20642;-82
2023/05/02 12:04:43;;;;;;;6.20;3.00;;;25.70;99.90;;;;;;4971191;28;20532;-82
2023/05/02 12:07:09;;;;;;;7.47;3.93;;;25.40;99.90;;;;;;4975627;28;20180;-82
2023/05/02 12:09:35;;;;;;;7.53;3.50;;;25.20;99.90;;;;;;4977160;28;20236;-83
2023/05/02 12:12:02;;;;;;;7.50;3.67;;;25.10;99.90;;;;;;4975922;28;20764;-83
2023/05/02 12:14:32;;;;;;;8.07;3.10;;;26.10;99.90;;;;;;4979855;28;20200;-83
2023/05/02 12:16:58;;;;;;;7.00;3.60;;;26.80;99.90;;;;;;4984530;28;20446;-82
2023/05/02 12:19:24;;;;;;;5.60;3.20;;;27.20;99.90;;;;;;4978350;28;20820;-82
2023/05/02 12:21:50;;;;;;;7.37;3.63;;;27.10;99.90;;;;;;4972074;28;20440;-82
2023/05/02 12:24:16;;;;;;;5.43;3.10;;;27.00;99.90;;;;;;4985392;28;20431;-82
2023/05/02 12:26:41;;;;;;;5.10;3.60;;;27.00;99.90;;;;;;4972353;28;20188;-83
2023/05/02 12:29:07;;;;;;;10.57;3.87;;;27.80;99.90;;;;;;4973290;28;20655;-82
2023/05/02 12:31:33;;;;;;;6.30;4.00;;;28.60;99.90;;;;;;4972046;28;20299;-82
2023/05/02 12:33:59;;;;;;;7.90;3.70;;;28.10;99.90;;;;;;4973911;28;20435;-81
2023/05/02 12:36:29;;;;;;;7.07;4.37;;;27.90;99.90;;;;;;4977171;28;20203;-82
2023/05/02 12:38:58;;;;;;;7.97;4.03;;;27.50;99.90;;;;;;4976276;28;20770;-82
2023/05/02 12:41:31;;;;;;;8.50;3.50;;;26.90;99.90;;;;;;4974987;28;20446;-81
2023/05/02 12:43:59;;;;;;;10.73;4.17;;;26.30;99.90;;;;;;4976150;28;20956;-82